createdAt,value
2017-12-20T00:01:55.574Z,11.17
2017-12-20T00:04:23.143Z,11.03
2017-12-20T00:06:50.571Z,10.80
2017-12-20T00:09:18.125Z,11.90
2017-12-20T00:11:45.693Z,11.03
2017-12-20T00:14:13.173Z,9.77
2017-12-20T00:16:40.832Z,10.77
2017-12-20T00:19:08.299Z,10.40
2017-12-20T00:21:35.858Z,9.40
2017-12-20T00:24:03.368Z,10.70
2017-12-20T00:26:30.814Z,11.60
2017-12-20T00:28:59.083Z,11.17
2017-12-20T00:31:26.843Z,12.87
2017-12-20T00:33:54.296Z,12.17
2017-12-20T00:36:21.778Z,14.63
2017-12-20T00:38:50.131Z,12.40
2017-12-20T00:41:17.805Z,14.30
2017-12-20T00:43:45.301Z,12.40
2017-12-20T00:46:12.758Z,14.10
2017-12-20T00:48:41.043Z,13.93
2017-12-20T00:51:09.305Z,13.30
2017-12-20T00:53:36.813Z,13.77
2017-12-20T00:56:04.338Z,12.73
2017-12-20T00:58:31.852Z,13.10
2017-12-20T01:00:59.326Z,13.77
2017-12-20T01:03:26.875Z,13.53
2017-12-20T01:05:54.368Z,12.17
2017-12-20T01:08:21.896Z,12.50
2017-12-20T01:10:49.373Z,11.90
2017-12-20T01:13:16.993Z,13.50
2017-12-20T01:15:45.412Z,12.40
2017-12-20T01:18:12.942Z,12.83
2017-12-20T01:20:41.239Z,13.50
2017-12-20T01:23:08.699Z,12.97
2017-12-20T01:25:36.258Z,10.53
2017-12-20T01:28:04.605Z,12.47
2017-12-20T01:30:32.245Z,11.53
2017-12-20T01:33:00.434Z,13.97
2017-12-20T01:35:27.991Z,11.70
2017-12-20T01:37:55.483Z,10.40
2017-12-20T01:40:22.973Z,10.90
2017-12-20T01:42:51.262Z,9.27
2017-12-20T01:45:19.594Z,9.97
2017-12-20T01:47:47.051Z,11.07
2017-12-20T01:50:14.632Z,10.97
2017-12-20T01:52:42.198Z,12.27
2017-12-20T01:55:10.314Z,9.77
2017-12-20T01:57:37.846Z,10.40
2017-12-20T02:00:05.350Z,11.57
2017-12-20T02:02:32.885Z,11.43
2017-12-20T02:05:01.111Z,10.40
2017-12-20T02:07:28.699Z,10.80
2017-12-20T02:09:56.213Z,10.77
2017-12-20T02:12:23.749Z,10.27
2017-12-20T02:14:51.307Z,12.40
2017-12-20T02:17:18.831Z,11.20
2017-12-20T02:19:46.296Z,11.87
2017-12-20T02:22:13.830Z,11.20
2017-12-20T02:24:41.341Z,13.00
2017-12-20T02:27:08.886Z,10.10
2017-12-20T02:29:37.153Z,9.30
2017-12-20T02:32:05.400Z,10.60
2017-12-20T02:34:33.762Z,10.07
2017-12-20T02:37:01.792Z,11.07
2017-12-20T02:39:30.053Z,10.17
2017-12-20T02:41:57.592Z,9.10
2017-12-20T02:44:25.090Z,10.73
2017-12-20T02:46:52.552Z,10.40
2017-12-20T02:49:20.065Z,9.43
2017-12-20T02:51:47.604Z,9.60
2017-12-20T02:54:15.078Z,11.90
2017-12-20T02:56:42.541Z,11.43
2017-12-20T02:59:10.069Z,10.20
2017-12-20T03:01:37.533Z,11.00
2017-12-20T03:04:05.009Z,11.60
2017-12-20T03:06:32.491Z,11.43
2017-12-20T03:08:59.998Z,11.50
2017-12-20T03:11:28.328Z,12.50
2017-12-20T03:13:55.847Z,14.00
2017-12-20T03:16:24.109Z,13.90
2017-12-20T03:18:51.646Z,14.97
2017-12-20T03:21:19.147Z,14.10
2017-12-20T03:23:46.653Z,16.03
2017-12-20T03:26:14.156Z,15.70
2017-12-20T03:28:41.680Z,15.67
2017-12-20T03:31:09.129Z,14.20
2017-12-20T03:33:36.742Z,16.90
2017-12-20T03:36:04.225Z,17.30
2017-12-20T03:38:32.494Z,17.80
2017-12-20T03:40:59.986Z,15.90
2017-12-20T03:43:28.216Z,19.87
2017-12-20T03:45:55.721Z,18.80
2017-12-20T03:48:23.989Z,19.83
2017-12-20T03:50:51.447Z,21.67
2017-12-20T03:53:18.929Z,23.63
2017-12-20T03:55:46.414Z,20.97
2017-12-20T03:58:13.873Z,21.17
2017-12-20T04:00:42.108Z,21.23
2017-12-20T04:03:09.642Z,23.07
2017-12-20T04:05:37.150Z,23.00
2017-12-20T04:08:05.396Z,22.13
2017-12-20T04:10:32.880Z,21.60
2017-12-20T04:13:00.339Z,24.00
2017-12-20T04:15:27.860Z,25.90
2017-12-20T04:17:55.361Z,21.63
2017-12-20T04:20:22.832Z,23.17
2017-12-20T04:22:50.321Z,21.07
2017-12-20T04:25:17.829Z,24.67
2017-12-20T04:27:45.302Z,23.57
2017-12-20T04:30:12.817Z,23.97
2017-12-20T04:32:41.034Z,22.50
2017-12-20T04:35:08.526Z,22.30
2017-12-20T04:37:36.001Z,23.57
2017-12-20T04:40:04.231Z,20.80
2017-12-20T04:42:31.737Z,21.80
2017-12-20T04:44:59.256Z,21.43
2017-12-20T04:47:26.714Z,22.97
2017-12-20T04:49:54.252Z,23.40
2017-12-20T04:52:22.488Z,22.30
2017-12-20T04:54:49.962Z,21.53
2017-12-20T04:57:17.504Z,21.60
2017-12-20T04:59:44.966Z,21.50
2017-12-20T05:02:12.477Z,22.57
2017-12-20T05:04:40.717Z,19.67
2017-12-20T05:07:08.965Z,20.27
2017-12-20T05:09:36.481Z,22.93
2017-12-20T05:12:03.987Z,20.43
2017-12-20T05:14:31.547Z,19.00
2017-12-20T05:16:58.958Z,19.90
2017-12-20T05:19:26.499Z,19.20
2017-12-20T05:21:53.957Z,18.30
2017-12-20T05:24:21.427Z,16.40
2017-12-20T05:26:48.916Z,18.30
2017-12-20T05:29:16.387Z,16.20
2017-12-20T05:31:43.883Z,17.30
2017-12-20T05:34:11.360Z,16.57
2017-12-20T05:36:38.887Z,17.93
2017-12-20T05:39:06.373Z,18.57
2017-12-20T05:41:33.921Z,18.00
2017-12-20T05:44:01.431Z,17.87
2017-12-20T05:46:28.902Z,18.87
2017-12-20T05:48:56.380Z,19.60
2017-12-20T05:51:24.007Z,19.23
2017-12-20T05:53:51.482Z,18.60
2017-12-20T05:56:18.991Z,19.20
2017-12-20T05:58:47.301Z,19.30
2017-12-20T06:01:14.779Z,18.77
2017-12-20T06:03:42.287Z,18.00
2017-12-20T06:06:09.735Z,17.10
2017-12-20T06:08:37.273Z,16.90
2017-12-20T06:11:04.749Z,16.43
2017-12-20T06:13:32.224Z,18.67
2017-12-20T06:15:59.728Z,16.10
2017-12-20T06:18:27.247Z,17.60
2017-12-20T06:20:54.687Z,16.20
2017-12-20T06:23:22.255Z,16.40
2017-12-20T06:25:49.745Z,16.70
2017-12-20T06:28:17.251Z,16.47
2017-12-20T06:30:44.717Z,16.50
2017-12-20T06:33:12.225Z,15.80
2017-12-20T06:35:39.711Z,14.03
2017-12-20T06:38:07.955Z,15.03
2017-12-20T06:40:35.415Z,14.57
2017-12-20T06:43:03.048Z,15.87
2017-12-20T06:45:30.462Z,14.83
2017-12-20T06:47:57.934Z,16.43
2017-12-20T06:50:25.444Z,12.93
2017-12-20T06:52:53.029Z,15.10
2017-12-20T06:55:20.490Z,13.10
2017-12-20T06:57:48.052Z,14.47
2017-12-20T07:00:15.500Z,15.00
2017-12-20T07:02:42.990Z,14.13
2017-12-20T07:05:10.534Z,15.40
2017-12-20T07:07:38.007Z,15.30
2017-12-20T07:10:05.459Z,15.83
2017-12-20T07:12:32.983Z,15.00
2017-12-20T07:15:01.245Z,17.73
2017-12-20T07:17:28.718Z,15.90
2017-12-20T07:19:56.259Z,17.03
2017-12-20T07:22:23.737Z,17.37
2017-12-20T07:24:51.233Z,16.20
2017-12-20T07:27:18.693Z,15.87
2017-12-20T07:29:46.227Z,16.80
2017-12-20T07:32:14.507Z,15.70
2017-12-20T07:34:42.008Z,16.00
2017-12-20T07:37:09.501Z,15.27
2017-12-20T07:39:36.979Z,15.17
2017-12-20T07:42:04.585Z,17.37
2017-12-20T07:44:32.083Z,15.97
2017-12-20T07:46:59.640Z,17.10
2017-12-20T07:49:27.162Z,15.47
2017-12-20T07:51:55.406Z,15.87
2017-12-20T07:54:22.957Z,15.87
2017-12-20T07:56:51.204Z,16.63
2017-12-20T07:59:18.673Z,17.10
2017-12-20T08:01:46.279Z,16.57
2017-12-20T08:04:13.758Z,15.47
2017-12-20T08:06:41.219Z,17.90
2017-12-20T08:09:08.708Z,17.30
2017-12-20T08:11:36.935Z,17.00
2017-12-20T08:14:05.212Z,17.00
2017-12-20T08:16:32.715Z,16.37
2017-12-20T08:19:00.210Z,18.87
2017-12-20T08:21:27.856Z,17.20
2017-12-20T08:23:55.271Z,16.03
2017-12-20T08:26:22.719Z,17.57
2017-12-20T08:28:50.192Z,18.30
2017-12-20T08:31:17.714Z,17.40
2017-12-20T08:33:45.942Z,15.93
2017-12-20T08:36:13.476Z,15.77
2017-12-20T08:38:40.969Z,16.60
2017-12-20T08:41:08.460Z,16.20
2017-12-20T08:43:35.960Z,17.73
2017-12-20T08:46:03.457Z,16.10
2017-12-20T08:48:31.028Z,16.23
2017-12-20T08:50:58.585Z,16.50
2017-12-20T08:53:26.057Z,16.60
2017-12-20T08:55:53.589Z,17.20
2017-12-20T08:58:21.556Z,15.60
2017-12-20T09:00:49.004Z,17.97
2017-12-20T09:03:17.353Z,16.03
2017-12-20T09:05:44.783Z,17.13
2017-12-20T09:08:12.397Z,17.67
2017-12-20T09:10:39.834Z,15.53
2017-12-20T09:13:07.301Z,14.90
2017-12-20T09:15:34.790Z,14.97
2017-12-20T09:18:02.267Z,15.80
2017-12-20T09:20:29.845Z,15.90
2017-12-20T09:22:57.391Z,15.77
2017-12-20T09:25:25.689Z,18.57
2017-12-20T09:27:53.193Z,15.47
2017-12-20T09:30:20.742Z,16.50
2017-12-20T09:32:48.276Z,15.60
2017-12-20T09:35:15.767Z,14.23
2017-12-20T09:37:43.300Z,15.87
2017-12-20T09:40:10.754Z,15.37
2017-12-20T09:42:38.284Z,16.90
2017-12-20T09:45:05.754Z,14.77
2017-12-20T09:47:33.210Z,15.20
2017-12-20T09:50:01.510Z,14.63
2017-12-20T09:52:29.011Z,13.37
2017-12-20T09:54:56.451Z,14.07
2017-12-20T09:57:24.012Z,13.57
2017-12-20T09:59:52.290Z,14.63
2017-12-20T10:02:19.727Z,13.60
2017-12-20T10:04:47.232Z,13.83
2017-12-20T10:07:15.491Z,15.87
2017-12-20T10:09:43.776Z,14.90
2017-12-20T10:12:12.006Z,13.87
2017-12-20T10:14:39.456Z,15.97
2017-12-20T10:17:06.988Z,14.13
2017-12-20T10:19:35.238Z,15.80
2017-12-20T10:22:02.725Z,16.00
2017-12-20T10:24:31.058Z,16.50
2017-12-20T10:26:58.557Z,16.40
2017-12-20T10:29:26.938Z,16.20
2017-12-20T10:31:54.387Z,17.07
2017-12-20T10:34:21.954Z,16.93
2017-12-20T10:36:49.421Z,17.37
2017-12-20T10:39:16.933Z,18.10
2017-12-20T10:41:44.398Z,14.83
2017-12-20T10:44:11.900Z,18.60
2017-12-20T10:46:39.388Z,15.40
2017-12-20T10:49:06.957Z,17.43
2017-12-20T10:51:34.399Z,18.60
2017-12-20T10:54:01.939Z,17.10
2017-12-20T10:56:29.430Z,16.97
2017-12-20T10:58:57.714Z,17.67
2017-12-20T11:01:25.303Z,17.67
2017-12-20T11:03:52.930Z,18.10
2017-12-20T11:06:20.352Z,18.00
2017-12-20T11:08:47.891Z,17.40
2017-12-20T11:11:16.141Z,16.90
2017-12-20T11:13:43.622Z,22.73
2017-12-20T11:16:11.883Z,19.43
2017-12-20T11:18:40.370Z,17.87
2017-12-20T11:21:07.831Z,18.80
2017-12-20T11:23:35.319Z,18.70
2017-12-20T11:26:02.834Z,19.10
2017-12-20T11:28:30.324Z,20.03
2017-12-20T11:30:57.819Z,19.97
2017-12-20T11:33:25.292Z,20.57
2017-12-20T11:35:53.076Z,21.07
2017-12-20T11:38:20.559Z,21.10
2017-12-20T11:40:48.057Z,20.90
2017-12-20T11:43:15.533Z,21.77
2017-12-20T11:45:43.060Z,22.37
2017-12-20T11:48:10.721Z,23.67
2017-12-20T11:50:38.163Z,21.03
2017-12-20T11:53:05.719Z,22.47
2017-12-20T11:55:33.262Z,23.47
2017-12-20T11:58:00.749Z,23.30
2017-12-20T12:00:28.276Z,21.80
2017-12-20T12:02:56.505Z,19.47
2017-12-20T12:05:23.997Z,21.37
2017-12-20T12:07:51.734Z,19.80
2017-12-20T12:10:19.156Z,19.67
2017-12-20T12:12:46.687Z,18.87
2017-12-20T12:15:14.977Z,19.27
2017-12-20T12:17:42.531Z,19.30
2017-12-20T12:20:10.006Z,17.40
2017-12-20T12:22:37.453Z,18.03
2017-12-20T12:25:04.963Z,19.27
2017-12-20T12:27:33.178Z,16.00
2017-12-20T12:30:00.700Z,17.97
2017-12-20T12:32:28.223Z,16.97
2017-12-20T12:34:55.728Z,18.47
2017-12-20T12:37:23.181Z,18.93
2017-12-20T12:39:50.720Z,17.03
2017-12-20T12:42:18.283Z,18.37
2017-12-20T12:44:45.791Z,19.07
2017-12-20T12:47:13.249Z,16.63
2017-12-20T12:49:40.811Z,19.47
2017-12-20T12:52:08.335Z,17.40
2017-12-20T12:54:35.906Z,17.43
2017-12-20T12:57:03.385Z,18.87
2017-12-20T12:59:30.892Z,17.80
2017-12-20T13:01:59.224Z,20.20
2017-12-20T13:04:27.536Z,20.77
2017-12-20T13:06:54.985Z,18.10
2017-12-20T13:09:22.454Z,18.30
2017-12-20T13:11:49.923Z,18.17
2017-12-20T13:14:17.437Z,18.60
2017-12-20T13:16:44.921Z,18.90
2017-12-20T13:19:13.178Z,17.20
2017-12-20T13:21:40.615Z,19.27
2017-12-20T13:24:08.190Z,18.63
2017-12-20T13:26:35.686Z,17.60
2017-12-20T13:29:03.940Z,17.53
2017-12-20T13:31:31.490Z,19.70
2017-12-20T13:33:58.970Z,18.57
2017-12-20T13:36:26.481Z,20.27
2017-12-20T13:38:53.991Z,17.50
2017-12-20T13:41:21.561Z,18.77
2017-12-20T13:43:49.036Z,20.70
2017-12-20T13:46:16.553Z,18.87
2017-12-20T13:48:44.170Z,20.27
2017-12-20T13:51:12.447Z,18.60
2017-12-20T13:53:39.937Z,19.77
2017-12-20T13:56:07.494Z,18.37
2017-12-20T13:58:35.751Z,17.47
2017-12-20T14:01:03.212Z,15.87
2017-12-20T14:03:30.771Z,16.37
2017-12-20T14:05:58.201Z,17.17
2017-12-20T14:08:25.719Z,17.50
2017-12-20T14:10:53.232Z,17.67
2017-12-20T14:13:20.717Z,18.53
2017-12-20T14:15:48.197Z,19.27
2017-12-20T14:18:15.787Z,17.47
2017-12-20T14:20:43.320Z,19.17
2017-12-20T14:23:10.743Z,19.77
2017-12-20T14:25:38.344Z,17.40
2017-12-20T14:28:05.851Z,20.00
2017-12-20T14:30:33.350Z,18.40
2017-12-20T14:33:00.904Z,15.80
2017-12-20T14:35:28.406Z,16.73
2017-12-20T14:37:55.889Z,17.40
2017-12-20T14:40:23.465Z,17.17
2017-12-20T14:42:50.959Z,17.90
2017-12-20T14:45:18.425Z,17.27
2017-12-20T14:47:45.928Z,18.17
2017-12-20T14:50:14.188Z,19.57
2017-12-20T14:52:41.658Z,17.33
2017-12-20T14:55:09.178Z,18.10
2017-12-20T14:57:36.694Z,22.17
2017-12-20T15:00:04.161Z,24.50
2017-12-20T15:02:32.417Z,18.80
2017-12-20T15:04:59.920Z,17.03
2017-12-20T15:07:27.402Z,17.40
2017-12-20T15:09:54.891Z,18.30
2017-12-20T15:12:22.337Z,17.37
2017-12-20T15:14:49.883Z,17.57
2017-12-20T15:17:18.066Z,17.37
2017-12-20T15:19:45.606Z,16.37
2017-12-20T15:22:13.089Z,17.40
2017-12-20T15:24:40.615Z,17.37
2017-12-20T15:27:08.131Z,16.87
2017-12-20T15:29:35.609Z,18.17
2017-12-20T15:32:03.201Z,27.60
2017-12-20T15:34:30.714Z,20.50
2017-12-20T15:36:58.241Z,16.47
2017-12-20T15:39:25.734Z,18.07
2017-12-20T15:41:53.387Z,19.00
2017-12-20T15:44:20.843Z,19.10
2017-12-20T15:46:49.093Z,15.77
2017-12-20T15:49:16.568Z,16.07
2017-12-20T15:51:44.071Z,16.67
2017-12-20T15:54:11.552Z,16.30
2017-12-20T15:56:39.067Z,14.63
2017-12-20T15:59:07.300Z,15.50
2017-12-20T16:01:34.872Z,17.37
2017-12-20T16:04:02.471Z,19.30
2017-12-20T16:06:30.029Z,19.63
2017-12-20T16:08:57.581Z,21.10
2017-12-20T16:11:25.732Z,20.07
2017-12-20T16:13:53.205Z,21.27
2017-12-20T16:16:21.065Z,20.30
2017-12-20T16:18:48.484Z,21.57
2017-12-20T16:21:16.735Z,20.43
2017-12-20T16:23:44.346Z,20.37
2017-12-20T16:26:11.800Z,21.33
2017-12-20T16:28:40.041Z,20.27
2017-12-20T16:31:07.492Z,19.17
2017-12-20T16:33:35.021Z,20.03
2017-12-20T16:36:02.535Z,17.80
2017-12-20T16:38:30.054Z,17.73
2017-12-20T16:40:57.532Z,16.40
2017-12-20T16:43:25.708Z,19.33
2017-12-20T16:45:53.228Z,16.27
2017-12-20T16:48:20.674Z,16.67
2017-12-20T16:50:48.127Z,19.17
2017-12-20T16:53:15.616Z,16.13
2017-12-20T16:55:43.108Z,17.00
2017-12-20T16:58:11.420Z,17.80
2017-12-20T17:00:38.879Z,16.87
2017-12-20T17:03:06.345Z,18.07
2017-12-20T17:05:33.817Z,14.97
2017-12-20T17:08:01.422Z,17.80
2017-12-20T17:10:29.658Z,16.60
2017-12-20T17:12:57.144Z,17.07
2017-12-20T17:15:24.664Z,15.30
2017-12-20T17:17:52.120Z,14.97
2017-12-20T17:20:19.599Z,14.60
2017-12-20T17:22:47.157Z,15.67
2017-12-20T17:25:14.638Z,16.20
2017-12-20T17:27:42.154Z,16.80
2017-12-20T17:30:09.685Z,14.83
2017-12-20T17:32:37.115Z,14.87
2017-12-20T17:35:04.599Z,16.23
2017-12-20T17:37:32.069Z,16.80
2017-12-20T17:39:59.573Z,16.60
2017-12-20T17:42:27.055Z,15.53
2017-12-20T17:44:54.631Z,18.50
2017-12-20T17:47:22.867Z,17.10
2017-12-20T17:49:50.340Z,19.60
2017-12-20T17:52:18.592Z,17.57
2017-12-20T17:54:46.155Z,17.70
2017-12-20T17:57:13.652Z,19.07
2017-12-20T17:59:41.149Z,17.87
2017-12-20T18:02:08.635Z,19.33
2017-12-20T18:04:36.131Z,19.20
2017-12-20T18:07:03.648Z,19.90
2017-12-20T18:09:31.137Z,19.97
2017-12-20T18:12:00.044Z,20.87
2017-12-20T18:14:27.541Z,18.37
2017-12-20T18:16:55.034Z,17.67
2017-12-20T18:19:22.579Z,18.47
2017-12-20T18:21:49.982Z,21.00
2017-12-20T18:24:18.276Z,20.67
2017-12-20T18:26:46.561Z,20.07
2017-12-20T18:29:14.052Z,20.47
2017-12-20T18:31:41.590Z,23.07
2017-12-20T18:34:09.037Z,22.37
2017-12-20T18:36:37.290Z,22.40
2017-12-20T18:39:04.845Z,20.00
2017-12-20T18:41:32.272Z,21.27
2017-12-20T18:43:59.783Z,20.37
2017-12-20T18:46:27.249Z,21.13
2017-12-20T18:48:55.434Z,19.40
2017-12-20T18:51:23.610Z,20.03
2017-12-20T18:53:51.087Z,19.70
2017-12-20T18:56:19.357Z,18.40
2017-12-20T18:58:46.851Z,21.17
2017-12-20T19:01:14.329Z,18.53
2017-12-20T19:03:41.802Z,16.30
2017-12-20T19:06:09.253Z,16.60
2017-12-20T19:08:36.816Z,16.40
2017-12-20T19:11:04.313Z,17.17
2017-12-20T19:13:31.818Z,16.93
2017-12-20T19:15:59.359Z,18.83
2017-12-20T19:18:26.813Z,18.17
2017-12-20T19:20:54.319Z,18.63
2017-12-20T19:23:21.810Z,19.20
2017-12-20T19:25:49.369Z,17.00
2017-12-20T19:28:16.923Z,17.40
2017-12-20T19:30:44.465Z,17.30
2017-12-20T19:33:12.005Z,17.47
2017-12-20T19:35:39.583Z,15.30
2017-12-20T19:38:07.100Z,17.07
2017-12-20T19:40:34.586Z,17.77
2017-12-20T19:43:02.101Z,17.73
2017-12-20T19:45:29.569Z,16.77
2017-12-20T19:47:57.093Z,15.27
2017-12-20T19:50:24.590Z,16.73
2017-12-20T19:52:52.108Z,18.07
2017-12-20T19:55:19.598Z,15.97
2017-12-20T19:57:47.108Z,17.17
2017-12-20T20:00:14.562Z,17.07
2017-12-20T20:02:42.148Z,18.20
2017-12-20T20:05:09.531Z,18.03
2017-12-20T20:07:37.791Z,17.97
2017-12-20T20:10:05.300Z,19.40
2017-12-20T20:12:33.542Z,18.83
2017-12-20T20:15:01.061Z,18.87
2017-12-20T20:17:29.271Z,18.70
2017-12-20T20:19:56.727Z,20.53
2017-12-20T20:22:24.262Z,19.60
2017-12-20T20:24:52.467Z,19.80
2017-12-20T20:27:19.990Z,20.57
2017-12-20T20:29:48.224Z,19.60
2017-12-20T20:32:15.736Z,20.87
2017-12-20T20:34:43.260Z,19.50
2017-12-20T20:37:10.742Z,18.93
2017-12-20T20:39:38.268Z,17.97
2017-12-20T20:42:05.822Z,17.93
2017-12-20T20:44:33.305Z,17.77
2017-12-20T20:47:00.813Z,16.40
2017-12-20T20:49:28.325Z,19.40
2017-12-20T20:51:55.771Z,17.20
2017-12-20T20:54:23.362Z,20.30
2017-12-20T20:56:51.688Z,16.70
2017-12-20T20:59:20.007Z,16.10
2017-12-20T21:01:48.277Z,17.00
2017-12-20T21:04:15.794Z,15.50
2017-12-20T21:06:43.337Z,15.60
2017-12-20T21:09:10.915Z,17.37
2017-12-20T21:11:38.383Z,16.00
2017-12-20T21:14:06.669Z,16.50
2017-12-20T21:16:34.938Z,18.33
2017-12-20T21:19:02.404Z,16.90
2017-12-20T21:21:30.787Z,20.07
2017-12-20T21:23:59.052Z,23.50
2017-12-20T21:26:26.566Z,15.50
2017-12-20T21:28:54.053Z,16.80
2017-12-20T21:31:21.541Z,16.57
2017-12-20T21:33:49.052Z,15.17
2017-12-20T21:36:16.609Z,16.17
2017-12-20T21:38:44.089Z,16.37
2017-12-20T21:41:11.656Z,17.07
2017-12-20T21:43:39.228Z,15.70
2017-12-20T21:46:06.721Z,15.93
2017-12-20T21:48:34.318Z,14.00
2017-12-20T21:51:01.746Z,14.83
2017-12-20T21:53:29.265Z,16.10
2017-12-20T21:55:57.592Z,15.90
2017-12-20T21:58:25.837Z,15.80
2017-12-20T22:00:54.012Z,16.60
2017-12-20T22:03:21.591Z,15.67
2017-12-20T22:05:49.060Z,17.30
2017-12-20T22:08:16.569Z,14.87
2017-12-20T22:10:44.827Z,15.30
2017-12-20T22:13:12.399Z,15.50
2017-12-20T22:15:39.850Z,14.07
2017-12-20T22:18:07.310Z,17.23
2017-12-20T22:20:34.793Z,14.17
2017-12-20T22:23:02.247Z,15.77
2017-12-20T22:25:29.813Z,15.87
2017-12-20T22:27:57.349Z,13.90
2017-12-20T22:30:24.847Z,15.87
2017-12-20T22:32:54.095Z,16.07
2017-12-20T22:35:21.518Z,17.00
2017-12-20T22:37:49.762Z,16.57
2017-12-20T22:40:17.219Z,16.27
2017-12-20T22:42:44.951Z,17.60
2017-12-20T22:45:12.474Z,16.20
2017-12-20T22:47:40.400Z,15.87
2017-12-20T22:50:07.899Z,16.17
2017-12-20T22:52:35.462Z,14.50
2017-12-20T22:55:03.164Z,15.87
2017-12-20T22:57:31.463Z,16.30
2017-12-20T22:59:58.916Z,13.80
2017-12-20T23:02:26.471Z,14.67
2017-12-20T23:04:53.936Z,14.00
2017-12-20T23:07:22.147Z,15.27
2017-12-20T23:09:49.640Z,14.03
2017-12-20T23:12:17.824Z,14.93
2017-12-20T23:14:45.343Z,14.90
2017-12-20T23:17:12.833Z,14.87
2017-12-20T23:19:40.321Z,14.20
2017-12-20T23:22:07.791Z,14.80
2017-12-20T23:24:36.031Z,14.07
2017-12-20T23:27:03.572Z,15.27
2017-12-20T23:29:31.081Z,13.70
2017-12-20T23:31:58.601Z,14.07
2017-12-20T23:34:26.094Z,15.00
2017-12-20T23:36:53.554Z,13.70
2017-12-20T23:39:21.083Z,19.03
2017-12-20T23:41:48.555Z,17.50
2017-12-20T23:44:16.014Z,13.77
2017-12-20T23:46:43.497Z,14.60
2017-12-20T23:49:10.972Z,14.60
2017-12-20T23:51:38.459Z,13.37
2017-12-20T23:54:05.959Z,14.50
2017-12-20T23:56:33.372Z,14.30
2017-12-20T23:59:00.826Z,14.50
